Time;durP1;ratioP1;P1;durP2;ratioP2;P2;SDS_P1;SDS_P2;PMS_P1;PMS_P2;Temp;Humidity;BMP_temperature;BMP_pressure;BME280_temperature;BME280_humidity;BME280_pressure;Samples;Min_cycle;Max_cycle;Signal;HPM_P1;HPM_P2
2023/01/02 00:01:51;;;;;;;7.20;3.47;;;9.50;99.90;;;;;;4958907;28;20524;-75
2023/01/02 00:04:17;;;;;;;8.68;3.35;;;9.40;99.90;;;;;;4958151;28;20427;-73
2023/01/02 00:06:42;;;;;;;7.13;3.20;;;9.30;99.90;;;;;;4956481;28;20432;-74
2023/01/02 00:09:08;;;;;;;9.60;3.57;;;9.50;99.90;;;;;;4959822;28;20431;-74
2023/01/02 00:11:34;;;;;;;9.07;3.97;;;9.70;99.90;;;;;;4959939;28;20467;-77
2023/01/02 00:14:00;;;;;;;7.27;3.47;;;9.70;99.90;;;;;;4963971;28;20431;-75
2023/01/02 00:16:25;;;;;;;5.33;3.20;;;9.70;99.90;;;;;;4959586;28;20443;-76
2023/01/02 00:18:51;;;;;;;5.40;3.90;;;9.80;99.90;;;;;;4962013;28;20432;-75
2023/01/02 00:21:17;;;;;;;6.43;3.57;;;9.90;99.90;;;;;;4957198;28;20448;-74
2023/01/02 00:23:43;;;;;;;10.38;5.03;;;9.80;99.90;;;;;;4955678;28;21946;-73
2023/01/02 00:26:09;;;;;;;6.90;4.05;;;9.90;99.90;;;;;;4956588;28;20444;-75
2023/01/02 00:28:36;;;;;;;8.38;5.10;;;9.80;99.90;;;;;;4958293;28;20452;-74
2023/01/02 00:31:10;;;;;;;5.75;4.53;;;10.00;99.90;;;;;;4975448;28;20534;-74
2023/01/02 00:33:36;;;;;;;9.20;5.20;;;10.00;99.90;;;;;;4958502;28;20447;-74
2023/01/02 00:36:07;;;;;;;8.20;5.32;;;10.10;99.90;;;;;;4954829;28;20488;-74
2023/01/02 00:38:33;;;;;;;9.93;5.83;;;10.10;99.90;;;;;;4958449;28;20424;-75
2023/01/02 00:40:59;;;;;;;8.52;5.25;;;10.00;99.90;;;;;;4957389;28;20798;-74
2023/01/02 00:43:25;;;;;;;7.25;5.03;;;10.20;99.90;;;;;;4958000;28;20443;-74
2023/01/02 00:45:51;;;;;;;5.82;4.75;;;10.30;99.90;;;;;;4959085;28;20451;-74
2023/01/02 00:48:17;;;;;;;9.55;5.68;;;10.30;99.90;;;;;;4958917;28;20416;-75
2023/01/02 00:50:43;;;;;;;6.65;5.47;;;10.30;99.90;;;;;;4954800;28;20502;-73
2023/01/02 00:53:09;;;;;;;5.70;5.13;;;10.30;99.90;;;;;;4959235;28;20420;-74
2023/01/02 00:55:35;;;;;;;7.97;6.20;;;10.40;99.90;;;;;;4961067;28;20447;-73
2023/01/02 00:58:01;;;;;;;5.33;4.43;;;10.40;99.90;;;;;;4960942;28;20439;-74
2023/01/02 01:00:26;;;;;;;5.63;4.63;;;10.30;99.90;;;;;;4958983;28;21215;-73
2023/01/02 01:02:56;;;;;;;5.20;4.27;;;10.40;99.90;;;;;;4942166;28;20424;-74
2023/01/02 01:05:26;;;;;;;4.32;3.92;;;10.40;99.90;;;;;;4954559;28;20459;-74
2023/01/02 01:07:54;;;;;;;7.63;4.70;;;10.50;99.90;;;;;;4942544;28;20432;-73
2023/01/02 01:10:21;;;;;;;11.13;4.33;;;10.40;99.90;;;;;;4957994;28;20474;-72
2023/01/02 01:12:47;;;;;;;7.70;4.75;;;10.50;99.90;;;;;;4957727;28;20424;-75
2023/01/02 01:15:12;;;;;;;4.32;3.90;;;10.50;99.90;;;;;;4957128;28;20432;-74
2023/01/02 01:17:39;;;;;;;4.78;3.63;;;10.40;99.90;;;;;;4958750;28;20494;-76
2023/01/02 01:20:06;;;;;;;4.35;3.58;;;10.50;99.90;;;;;;4962791;28;20428;-74
2023/01/02 01:22:32;;;;;;;4.55;4.15;;;10.40;99.90;;;;;;4958900;28;20494;-74
2023/01/02 01:24:57;;;;;;;5.63;4.25;;;10.50;99.90;;;;;;4958081;28;20450;-73
2023/01/02 01:27:23;;;;;;;5.78;5.00;;;10.50;99.90;;;;;;4960062;28;20503;-75
2023/01/02 01:29:49;;;;;;;8.10;5.50;;;10.40;99.90;;;;;;4957878;28;20434;-74
2023/01/02 01:32:14;;;;;;;7.07;5.53;;;10.70;99.90;;;;;;4956068;28;20431;-74
2023/01/02 01:34:40;;;;;;;6.67;5.47;;;10.50;99.90;;;;;;4954930;28;20431;-73
2023/01/02 01:37:06;;;;;;;9.60;6.27;;;10.60;99.90;;;;;;4958467;28;20554;-74
2023/01/02 01:39:31;;;;;;;6.50;5.30;;;10.50;99.90;;;;;;4960710;28;20949;-74
2023/01/02 01:42:01;;;;;;;6.70;5.78;;;10.60;99.90;;;;;;4959692;28;20925;-74
2023/01/02 01:44:47;;;;;;;7.97;5.70;;;10.60;99.90;;;;;;4955606;28;20522;-74
2023/01/02 01:47:24;;;;;;;6.65;5.78;;;10.50;99.90;;;;;;4954914;28;20457;-75
2023/01/02 01:50:07;;;;;;;9.55;6.88;;;10.60;99.90;;;;;;4957015;28;20501;-74
2023/01/02 01:52:39;;;;;;;6.38;5.78;;;10.60;99.90;;;;;;4954912;28;20428;-75
2023/01/02 01:55:30;;;;;;;9.00;6.50;;;10.50;99.90;;;;;;4956481;28;20513;-73
2023/01/02 01:57:59;;;;;;;7.40;6.43;;;10.50;99.90;;;;;;4953930;28;20450;-74
2023/01/02 02:00:26;;;;;;;7.18;6.45;;;10.70;99.90;;;;;;4970418;28;20433;-73
2023/01/02 02:02:57;;;;;;;9.52;7.43;;;10.70;99.90;;;;;;4951931;28;20812;-74
2023/01/02 02:05:29;;;;;;;10.02;7.55;;;10.70;99.90;;;;;;4962648;28;20436;-75
2023/01/02 02:08:22;;;;;;;11.73;8.10;;;10.60;99.90;;;;;;4958509;28;20432;-74
2023/01/02 02:10:50;;;;;;;11.52;8.18;;;10.70;99.90;;;;;;4750251;23;22773;-74
2023/01/02 02:13:16;;;;;;;11.30;8.20;;;10.60;99.90;;;;;;4941930;28;20456;-74
2023/01/02 02:15:49;;;;;;;12.00;8.55;;;10.60;99.90;;;;;;4943494;28;20828;-74
2023/01/02 02:18:27;;;;;;;14.88;11.77;;;10.70;99.90;;;;;;4941082;28;20445;-76
2023/01/02 02:21:18;;;;;;;12.52;9.23;;;10.90;99.90;;;;;;4941770;29;20433;-74
2023/01/02 02:23:59;;;;;;;11.23;9.77;;;10.60;99.90;;;;;;4939699;28;20852;-75
2023/01/02 02:27:00;;;;;;;12.52;10.27;;;10.70;99.90;;;;;;4936214;28;20441;-75
2023/01/02 02:30:03;;;;;;;13.68;10.00;;;10.90;99.90;;;;;;4940465;28;20436;-74
2023/01/02 02:32:41;;;;;;;13.43;10.88;;;10.70;99.90;;;;;;4936329;29;20452;-73
2023/01/02 02:35:12;;;;;;;11.43;9.60;;;10.70;99.90;;;;;;4936924;28;20462;-73
2023/01/02 02:38:35;;;;;;;11.30;10.00;;;10.60;99.90;;;;;;4935784;28;20461;-76
2023/01/02 02:41:25;;;;;;;12.90;10.73;;;10.90;99.90;;;;;;4899060;29;20447;-75
2023/01/02 02:44:24;;;;;;;11.93;10.20;;;10.80;99.90;;;;;;4891003;29;20444;-73
2023/01/02 02:47:02;;;;;;;13.23;10.10;;;10.80;99.90;;;;;;4937608;28;20532;-72
2023/01/02 02:49:44;;;;;;;12.80;10.15;;;11.00;99.90;;;;;;4943301;29;20821;-74
2023/01/02 02:52:21;;;;;;;12.13;9.65;;;10.70;99.90;;;;;;4926591;28;20508;-74
2023/01/02 02:55:06;;;;;;;14.23;10.90;;;10.90;99.90;;;;;;4933771;28;20428;-75
2023/01/02 02:57:33;;;;;;;12.45;9.80;;;10.80;99.90;;;;;;4939593;28;20452;-73
2023/01/02 02:59:59;;;;;;;14.30;9.93;;;10.70;99.90;;;;;;4941268;29;20545;-74
2023/01/02 03:02:25;;;;;;;13.45;9.65;;;10.90;99.90;;;;;;4940238;28;20512;-74
2023/01/02 03:05:08;;;;;;;12.48;9.32;;;10.80;99.90;;;;;;4935534;28;20441;-74
2023/01/02 03:07:55;;;;;;;13.20;11.02;;;10.90;99.90;;;;;;4930799;28;20450;-74
2023/01/02 03:10:32;;;;;;;15.83;10.57;;;11.10;99.90;;;;;;4923795;29;20449;-74
2023/01/02 03:13:27;;;;;;;12.00;9.77;;;10.80;99.90;;;;;;4949714;28;20436;-75
2023/01/02 03:16:01;;;;;;;14.68;10.70;;;10.80;99.90;;;;;;4938284;28;20448;-74
2023/01/02 03:18:48;;;;;;;12.82;10.43;;;10.90;99.90;;;;;;4935934;28;20426;-74
2023/01/02 03:21:33;;;;;;;12.65;10.00;;;10.90;99.90;;;;;;4939932;28;20434;-72
2023/01/02 03:24:04;;;;;;;13.25;10.73;;;10.90;99.90;;;;;;4940515;28;20501;-73
2023/01/02 03:26:32;;;;;;;13.15;10.55;;;10.90;99.90;;;;;;4915884;29;20433;-74
2023/01/02 03:29:05;;;;;;;13.32;10.95;;;11.10;99.90;;;;;;4941128;28;20568;-74
2023/01/02 03:31:35;;;;;;;15.35;11.35;;;10.80;99.90;;;;;;4937184;29;20480;-75
2023/01/02 03:34:09;;;;;;;16.43;11.37;;;10.90;99.90;;;;;;4938510;28;20441;-75
2023/01/02 03:36:38;;;;;;;17.00;10.88;;;10.90;99.90;;;;;;4941677;28;20450;-73
2023/01/02 03:39:16;;;;;;;16.30;11.65;;;11.00;99.90;;;;;;4935637;28;20441;-75
2023/01/02 03:42:00;;;;;;;16.95;11.50;;;11.00;99.90;;;;;;4937419;28;20450;-74
2023/01/02 03:44:33;;;;;;;20.20;12.00;;;11.30;99.90;;;;;;4939506;29;20425;-74
2023/01/02 03:47:24;;;;;;;19.15;11.27;;;11.30;99.90;;;;;;4928565;29;20437;-74
2023/01/02 03:49:53;;;;;;;20.65;12.80;;;11.00;99.90;;;;;;4930570;28;20429;-73
2023/01/02 03:52:19;;;;;;;21.33;12.13;;;11.00;99.90;;;;;;4929873;28;20434;-75
2023/01/02 03:54:46;;;;;;;16.38;11.73;;;11.20;99.90;;;;;;4931873;28;20497;-74
2023/01/02 03:57:17;;;;;;;17.92;13.00;;;11.20;99.90;;;;;;4922047;28;20471;-74
2023/01/02 04:00:05;;;;;;;20.50;12.45;;;10.90;99.90;;;;;;4912537;29;20492;-75
2023/01/02 04:02:45;;;;;;;19.27;11.97;;;11.00;99.90;;;;;;4926494;28;20437;-73
2023/01/02 04:05:34;;;;;;;20.70;13.83;;;11.00;99.90;;;;;;4933686;28;20501;-73
2023/01/02 04:08:23;;;;;;;24.88;13.93;;;10.90;99.90;;;;;;4928313;28;20433;-75
2023/01/02 04:10:52;;;;;;;18.50;12.70;;;11.20;99.90;;;;;;4930406;29;20446;-74
2023/01/02 04:13:22;;;;;;;18.67;12.98;;;10.90;99.90;;;;;;4936222;28;20445;-73
2023/01/02 04:15:49;;;;;;;18.35;13.48;;;11.30;99.90;;;;;;4932199;28;20444;-74
2023/01/02 04:18:19;;;;;;;18.77;12.30;;;11.10;99.90;;;;;;4916230;29;20443;-75
2023/01/02 04:20:49;;;;;;;21.58;12.95;;;11.10;99.90;;;;;;4908970;29;20435;-74
2023/01/02 04:23:23;;;;;;;19.67;13.43;;;11.00;99.90;;;;;;4933664;28;20451;-75
2023/01/02 04:25:55;;;;;;;18.30;13.43;;;11.30;99.90;;;;;;4934998;28;20856;-73
2023/01/02 04:28:27;;;;;;;20.55;15.32;;;10.90;99.90;;;;;;4933769;28;20432;-73
2023/01/02 04:31:14;;;;;;;19.17;13.93;;;11.20;99.90;;;;;;4941851;28;20426;-74
2023/01/02 04:33:51;;;;;;;22.55;13.80;;;11.20;99.90;;;;;;4932492;29;20805;-75
2023/01/02 04:36:17;;;;;;;23.88;13.60;;;11.10;99.90;;;;;;4932533;28;21018;-74
2023/01/02 04:38:44;;;;;;;20.67;14.23;;;11.00;99.90;;;;;;4936591;28;20764;-75
2023/01/02 04:41:14;;;;;;;21.97;13.90;;;11.00;99.90;;;;;;4941219;29;20461;-74
2023/01/02 04:43:40;;;;;;;20.05;13.63;;;11.00;99.90;;;;;;4939078;28;20436;-74
2023/01/02 04:46:06;;;;;;;17.05;13.65;;;11.30;99.90;;;;;;4942138;29;20426;-74
2023/01/02 04:48:31;;;;;;;19.73;13.40;;;11.00;99.90;;;;;;4941578;28;20522;-73
2023/01/02 04:50:57;;;;;;;17.87;13.20;;;11.30;99.90;;;;;;4941429;28;20445;-74
2023/01/02 04:53:23;;;;;;;17.57;11.53;;;11.00;99.90;;;;;;4934941;28;20422;-74
2023/01/02 04:55:55;;;;;;;14.80;11.20;;;11.30;99.90;;;;;;4941252;29;20433;-75
2023/01/02 04:58:21;;;;;;;15.07;11.38;;;11.10;99.90;;;;;;4943242;28;20837;-74
2023/01/02 05:00:46;;;;;;;18.13;12.20;;;11.00;99.90;;;;;;4938660;28;20426;-74
2023/01/02 05:03:12;;;;;;;14.53;9.70;;;11.30;99.90;;;;;;4935781;28;20472;-73
2023/01/02 05:05:38;;;;;;;12.00;9.77;;;11.30;99.90;;;;;;4933159;28;20425;-73
2023/01/02 05:08:04;;;;;;;12.33;9.57;;;11.00;99.90;;;;;;4936929;28;20939;-76
2023/01/02 05:10:29;;;;;;;10.80;9.10;;;11.10;99.90;;;;;;4940137;28;20425;-74
2023/01/02 05:12:58;;;;;;;12.57;10.00;;;11.10;99.90;;;;;;4930860;28;20434;-74
2023/01/02 05:15:24;;;;;;;11.65;9.25;;;11.00;99.90;;;;;;4933586;28;20440;-74
2023/01/02 05:17:49;;;;;;;10.57;8.13;;;11.30;99.90;;;;;;4935293;28;20999;-73
2023/01/02 05:20:15;;;;;;;8.13;6.63;;;11.20;99.90;;;;;;4944309;28;20435;-74
2023/01/02 05:25:31;;;;;;;7.80;5.97;;;11.30;99.90;;;;;;4931915;28;20440;-73
2023/01/02 05:27:56;;;;;;;6.90;6.18;;;11.00;99.90;;;;;;4934016;28;20864;-74
2023/01/02 05:30:22;;;;;;;6.65;5.97;;;11.10;99.90;;;;;;4939515;28;20524;-72
2023/01/02 05:32:48;;;;;;;13.57;10.02;;;11.20;99.90;;;;;;4942499;29;20960;-75
2023/01/02 05:35:14;;;;;;;7.57;6.80;;;11.20;99.90;;;;;;4941080;28;20426;-74
2023/01/02 05:37:40;;;;;;;9.93;8.05;;;11.20;99.90;;;;;;4944023;28;20505;-75
2023/01/02 05:40:07;;;;;;;8.98;7.30;;;11.30;99.90;;;;;;4938794;28;20485;-73
2023/01/02 05:42:32;;;;;;;9.17;7.87;;;11.30;99.90;;;;;;4933449;28;20441;-74
2023/01/02 05:44:58;;;;;;;9.70;7.40;;;11.40;99.90;;;;;;4930530;28;20447;-73
2023/01/02 05:47:24;;;;;;;11.60;8.00;;;11.40;99.90;;;;;;4928294;29;20789;-73
2023/01/02 05:49:50;;;;;;;11.17;8.43;;;11.30;99.90;;;;;;4926963;28;20534;-74
2023/01/02 05:52:15;;;;;;;10.47;8.97;;;11.30;99.90;;;;;;4934698;28;20995;-74
2023/01/02 05:54:41;;;;;;;11.13;9.97;;;11.20;99.90;;;;;;4934252;28;20504;-74
2023/01/02 05:57:07;;;;;;;11.15;9.98;;;11.00;99.90;;;;;;4933287;28;20831;-74
2023/01/02 05:59:32;;;;;;;12.45;10.30;;;11.40;99.90;;;;;;4916760;29;20436;-73
2023/01/02 06:01:58;;;;;;;11.88;10.00;;;11.10;99.90;;;;;;4940998;28;20441;-74
2023/01/02 06:04:24;;;;;;;13.23;10.40;;;11.30;99.90;;;;;;4943486;28;20539;-73
2023/01/02 06:06:50;;;;;;;13.83;11.07;;;11.00;99.90;;;;;;4942172;28;20441;-74
2023/01/02 06:09:16;;;;;;;13.05;10.73;;;11.30;99.90;;;;;;4939224;28;20539;-73
2023/01/02 06:11:42;;;;;;;13.65;9.63;;;10.90;99.90;;;;;;4937832;28;20441;-74
2023/01/02 06:14:09;;;;;;;9.67;8.73;;;11.10;99.90;;;;;;4936209;28;20445;-74
2023/01/02 06:16:36;;;;;;;11.20;10.10;;;11.00;99.90;;;;;;4932744;29;20529;-74
2023/01/02 06:19:02;;;;;;;13.38;10.43;;;11.10;99.90;;;;;;4932893;29;21055;-74
2023/01/02 06:21:28;;;;;;;12.20;10.40;;;10.90;99.90;;;;;;4913900;29;20445;-73
2023/01/02 06:23:56;;;;;;;10.23;9.13;;;11.10;99.90;;;;;;4930778;29;20442;-73
2023/01/02 06:26:23;;;;;;;10.55;9.25;;;10.80;99.90;;;;;;4935230;29;20522;-74
2023/01/02 06:28:50;;;;;;;11.17;9.50;;;10.90;99.90;;;;;;4923231;29;20994;-75
2023/01/02 06:31:18;;;;;;;9.90;8.85;;;11.00;99.90;;;;;;4932105;29;20444;-73
2023/01/02 06:33:44;;;;;;;10.20;9.20;;;10.80;99.90;;;;;;4928855;28;20448;-74
2023/01/02 06:36:17;;;;;;;8.55;7.72;;;10.80;99.90;;;;;;4941663;29;20509;-74
2023/01/02 06:38:44;;;;;;;9.57;8.60;;;10.60;99.90;;;;;;4940207;28;20453;-72
2023/01/02 06:41:11;;;;;;;9.13;8.20;;;10.50;99.90;;;;;;4928937;28;20431;-73
2023/01/02 06:43:42;;;;;;;8.55;7.75;;;10.40;99.90;;;;;;4932745;28;20805;-73
2023/01/02 06:46:09;;;;;;;7.90;7.10;;;10.40;99.90;;;;;;4920739;29;20433;-73
2023/01/02 06:48:35;;;;;;;8.50;7.32;;;10.40;99.90;;;;;;4926839;28;20937;-73
2023/01/02 06:51:04;;;;;;;11.15;9.52;;;10.30;99.90;;;;;;4936014;28;20426;-73
2023/01/02 06:53:33;;;;;;;14.25;9.30;;;10.10;99.90;;;;;;4932622;28;20425;-73
2023/01/02 06:55:59;;;;;;;11.35;8.57;;;10.00;99.90;;;;;;4928330;28;20770;-73
2023/01/02 06:58:28;;;;;;;14.43;8.80;;;9.70;99.90;;;;;;4939806;28;20502;-73
2023/01/02 07:00:54;;;;;;;12.80;8.60;;;9.80;99.90;;;;;;4940384;28;20542;-73
2023/01/02 07:03:19;;;;;;;13.00;7.65;;;9.60;99.90;;;;;;4940407;28;20464;-73
2023/01/02 07:05:45;;;;;;;8.13;5.07;;;9.60;99.90;;;;;;4942830;29;20438;-72
2023/01/02 07:08:12;;;;;;;4.20;2.42;;;9.60;99.90;;;;;;4942481;29;20435;-72
2023/01/02 07:10:37;;;;;;;3.67;2.28;;;9.40;99.90;;;;;;4938956;28;20960;-73
2023/01/02 07:13:04;;;;;;;5.40;2.70;;;9.30;99.90;;;;;;4941362;28;20437;-73
2023/01/02 07:15:31;;;;;;;4.05;1.77;;;9.40;99.90;;;;;;4937782;28;20438;-74
2023/01/02 07:17:56;;;;;;;2.63;1.30;;;9.10;99.90;;;;;;4941253;28;20445;-75
2023/01/02 07:20:22;;;;;;;1.53;0.90;;;9.20;99.90;;;;;;4941474;28;20437;-73
2023/01/02 07:22:52;;;;;;;1.37;0.60;;;9.00;99.90;;;;;;4941353;29;20958;-74
2023/01/02 07:25:19;;;;;;;1.65;0.65;;;9.00;99.90;;;;;;4938855;28;21356;-74
2023/01/02 07:27:45;;;;;;;0.88;0.70;;;9.00;99.90;;;;;;4940456;28;21130;-74
2023/01/02 07:30:11;;;;;;;4.93;0.57;;;8.90;99.90;;;;;;4939662;28;20463;-74
2023/01/02 07:32:37;;;;;;;1.10;0.60;;;8.90;99.90;;;;;;4939501;29;20472;-73
2023/01/02 07:35:03;;;;;;;3.60;0.80;;;8.80;99.90;;;;;;4939175;28;20465;-74
2023/01/02 07:37:29;;;;;;;10.27;1.30;;;9.00;99.90;;;;;;4939024;29;20437;-74
2023/01/02 07:39:55;;;;;;;2.00;0.60;;;9.00;99.90;;;;;;4938961;28;20452;-75
2023/01/02 07:42:20;;;;;;;3.58;1.25;;;9.00;99.90;;;;;;4939886;28;20781;-74
2023/01/02 07:44:46;;;;;;;3.00;1.27;;;8.90;99.90;;;;;;4939284;28;20436;-74
2023/01/02 07:47:12;;;;;;;3.00;0.88;;;8.90;99.90;;;;;;4941091;28;20422;-73
2023/01/02 07:49:37;;;;;;;1.23;0.63;;;8.80;99.90;;;;;;4939709;29;20505;-74
2023/01/02 07:52:03;;;;;;;1.15;0.90;;;8.70;99.90;;;;;;4943102;29;20418;-74
2023/01/02 07:54:29;;;;;;;4.13;1.20;;;8.60;99.90;;;;;;4935309;28;20517;-73
2023/01/02 07:56:55;;;;;;;3.05;1.10;;;8.50;99.90;;;;;;4939581;28;20927;-74
2023/01/02 07:59:20;;;;;;;4.07;1.10;;;8.70;99.90;;;;;;4939583;28;20514;-72
2023/01/02 08:01:46;;;;;;;2.40;1.10;;;8.50;99.90;;;;;;4941051;29;20426;-72
2023/01/02 08:04:12;;;;;;;3.42;1.23;;;8.50;99.90;;;;;;4941635;28;20441;-74
2023/01/02 08:06:41;;;;;;;2.90;1.23;;;8.60;99.90;;;;;;4941191;28;20472;-73
2023/01/02 08:09:07;;;;;;;3.03;1.02;;;8.50;99.90;;;;;;4942720;28;20445;-73
2023/01/02 08:11:33;;;;;;;1.60;0.80;;;8.50;99.90;;;;;;4943839;29;20425;-76
2023/01/02 08:13:58;;;;;;;2.72;1.05;;;8.40;99.90;;;;;;4942448;28;20448;-74
2023/01/02 08:16:24;;;;;;;2.35;1.02;;;8.50;99.90;;;;;;4942749;28;20444;-74
2023/01/02 08:18:56;;;;;;;3.20;1.23;;;8.50;99.90;;;;;;4945210;28;20509;-74
2023/01/02 08:21:24;;;;;;;4.15;1.80;;;8.70;99.90;;;;;;4927529;28;20437;-75
2023/01/02 08:23:49;;;;;;;2.95;1.30;;;8.70;99.90;;;;;;4942750;28;20987;-73
2023/01/02 08:26:15;;;;;;;1.63;1.33;;;8.60;99.90;;;;;;4943017;28;20432;-75
2023/01/02 08:28:42;;;;;;;3.63;1.60;;;8.50;99.90;;;;;;4943655;28;20437;-77
2023/01/02 08:31:13;;;;;;;2.65;1.35;;;8.60;99.90;;;;;;4945102;28;20761;-75
2023/01/02 08:33:39;;;;;;;3.03;1.23;;;8.60;99.90;;;;;;4941849;28;20440;-75
2023/01/02 08:36:05;;;;;;;2.97;1.40;;;8.50;99.90;;;;;;4943989;28;20437;-73
2023/01/02 08:38:31;;;;;;;5.20;1.50;;;8.40;99.90;;;;;;4942701;28;20441;-74
2023/01/02 08:40:58;;;;;;;3.23;1.40;;;8.60;99.90;;;;;;4944574;28;20431;-72
2023/01/02 08:43:24;;;;;;;3.60;1.60;;;8.40;99.90;;;;;;4942142;28;20528;-73
2023/01/02 08:45:50;;;;;;;4.07;1.63;;;8.30;99.90;;;;;;4944035;28;20436;-74
2023/01/02 08:48:15;;;;;;;3.83;1.42;;;8.50;99.90;;;;;;4942530;29;20860;-73
2023/01/02 08:50:41;;;;;;;4.97;1.77;;;8.30;99.90;;;;;;4943232;29;20856;-75
2023/01/02 08:53:07;;;;;;;4.35;1.80;;;8.40;99.90;;;;;;4944468;28;20429;-74
2023/01/02 08:55:32;;;;;;;8.90;2.30;;;8.60;99.90;;;;;;4944126;28;20402;-74
2023/01/02 08:57:58;;;;;;;4.33;2.20;;;8.40;99.90;;;;;;4943621;28;21003;-76
2023/01/02 09:00:24;;;;;;;4.27;2.43;;;8.30;99.90;;;;;;4945074;29;20464;-75
2023/01/02 09:02:49;;;;;;;5.83;3.50;;;8.50;99.90;;;;;;4943161;28;20529;-75
2023/01/02 09:05:15;;;;;;;8.10;3.73;;;8.40;99.90;;;;;;4942311;28;20477;-76
2023/01/02 09:07:42;;;;;;;5.80;3.27;;;8.40;99.90;;;;;;4944900;28;20429;-76
2023/01/02 09:10:08;;;;;;;7.22;3.70;;;8.40;99.90;;;;;;4942308;28;20441;-78
2023/01/02 09:12:35;;;;;;;6.40;3.60;;;8.50;99.90;;;;;;4944164;28;20438;-74
2023/01/02 09:15:01;;;;;;;5.97;3.70;;;8.30;99.90;;;;;;4940978;28;20471;-75
2023/01/02 09:17:28;;;;;;;7.03;4.00;;;8.50;99.90;;;;;;4941893;28;20430;-75
2023/01/02 09:19:53;;;;;;;6.72;4.80;;;8.70;99.90;;;;;;4942203;28;20472;-75
2023/01/02 09:22:19;;;;;;;9.07;4.10;;;8.50;99.90;;;;;;4941927;28;20450;-75
2023/01/02 09:24:45;;;;;;;8.45;3.92;;;8.60;99.90;;;;;;4941019;28;20520;-76
2023/01/02 09:27:11;;;;;;;7.27;4.00;;;8.40;99.90;;;;;;4938867;28;20928;-74
2023/01/02 09:29:37;;;;;;;7.10;4.10;;;8.40;99.90;;;;;;4922880;29;20483;-75
2023/01/02 09:32:03;;;;;;;5.30;3.58;;;8.60;99.90;;;;;;4942571;28;20556;-75
2023/01/02 09:34:28;;;;;;;7.47;4.50;;;8.50;99.90;;;;;;4942324;28;20438;-77
2023/01/02 09:36:54;;;;;;;7.32;4.18;;;8.70;99.90;;;;;;4934754;28;20448;-74
2023/01/02 09:39:20;;;;;;;6.97;4.63;;;8.60;99.90;;;;;;4938476;28;20434;-75
2023/01/02 09:41:49;;;;;;;7.05;4.20;;;8.60;99.90;;;;;;4942176;29;20425;-77
2023/01/02 09:44:21;;;;;;;6.40;4.00;;;8.70;99.90;;;;;;4935055;29;20484;-77
2023/01/02 09:47:02;;;;;;;8.27;3.75;;;8.60;99.90;;;;;;4939552;29;20441;-73
2023/01/02 09:49:31;;;;;;;6.22;3.88;;;8.70;99.90;;;;;;4941098;29;20429;-78
2023/01/02 09:51:57;;;;;;;9.23;3.85;;;8.60;99.90;;;;;;4944151;29;20544;-76
2023/01/02 09:54:29;;;;;;;6.80;3.03;;;8.50;99.90;;;;;;4959152;28;20916;-77
2023/01/02 09:57:16;;;;;;;8.07;2.75;;;8.70;99.90;;;;;;4943097;29;20446;-76
2023/01/02 09:59:47;;;;;;;4.93;2.50;;;8.70;99.90;;;;;;4942819;29;20480;-76
2023/01/02 10:02:50;;;;;;;3.77;1.90;;;8.70;99.90;;;;;;4943160;29;20433;-76
2023/01/02 10:05:30;;;;;;;3.13;1.52;;;8.70;99.90;;;;;;4943241;29;20457;-73
2023/01/02 10:08:08;;;;;;;2.75;1.38;;;8.80;99.90;;;;;;4941581;29;20973;-75
2023/01/02 10:10:41;;;;;;;1.70;0.95;;;8.80;99.90;;;;;;4958711;28;20552;-75
2023/01/02 10:13:12;;;;;;;5.35;1.55;;;8.90;99.90;;;;;;4943432;29;20437;-71
2023/01/02 10:15:44;;;;;;;3.28;1.42;;;8.60;99.90;;;;;;4938745;29;20498;-75
2023/01/02 10:18:25;;;;;;;3.17;1.50;;;8.60;99.90;;;;;;4941751;28;20492;-74
2023/01/02 10:21:17;;;;;;;3.53;1.70;;;8.70;99.90;;;;;;4930828;29;20925;-77
2023/01/02 10:23:55;;;;;;;5.27;2.10;;;8.60;99.90;;;;;;4938943;29;21017;-76
2023/01/02 10:26:25;;;;;;;4.97;1.80;;;8.70;99.90;;;;;;4933316;28;20553;-73
2023/01/02 10:29:02;;;;;;;2.10;1.50;;;8.60;99.90;;;;;;4942758;29;20509;-77
2023/01/02 10:31:39;;;;;;;3.57;1.67;;;8.70;99.90;;;;;;4944152;29;20476;-77
2023/01/02 10:34:21;;;;;;;5.25;1.80;;;8.80;99.90;;;;;;4942294;29;20422;-77
2023/01/02 10:36:48;;;;;;;5.53;1.90;;;8.60;99.90;;;;;;4945408;29;20532;-75
2023/01/02 10:39:20;;;;;;;3.72;1.90;;;8.60;99.90;;;;;;4946530;29;20450;-76
2023/01/02 10:41:50;;;;;;;10.05;2.92;;;8.60;99.90;;;;;;4944466;29;20422;-75
2023/01/02 10:44:25;;;;;;;7.30;2.53;;;8.70;99.90;;;;;;4946529;29;20481;-72
2023/01/02 10:46:51;;;;;;;5.18;1.77;;;8.80;99.90;;;;;;4945877;28;20449;-78
2023/01/02 10:49:18;;;;;;;5.20;1.98;;;8.80;99.90;;;;;;4945779;29;20509;-74
2023/01/02 10:51:50;;;;;;;4.60;1.83;;;8.40;99.90;;;;;;4952140;29;20937;-70
2023/01/02 10:54:16;;;;;;;6.93;2.05;;;8.50;99.90;;;;;;4953802;29;20441;-71
2023/01/02 10:56:47;;;;;;;5.03;1.90;;;8.50;99.90;;;;;;4946314;29;20460;-72
2023/01/02 10:59:33;;;;;;;5.63;1.90;;;8.60;99.90;;;;;;4943428;29;20440;-77
2023/01/02 11:01:59;;;;;;;8.13;2.58;;;8.50;99.90;;;;;;4943310;28;20418;-73
2023/01/02 11:04:28;;;;;;;7.30;2.57;;;8.70;99.90;;;;;;4942250;29;20488;-72
2023/01/02 11:06:59;;;;;;;5.93;2.10;;;8.60;99.90;;;;;;4934756;29;20425;-74
2023/01/02 11:09:28;;;;;;;5.67;1.60;;;8.50;99.90;;;;;;4942200;29;20414;-75
2023/01/02 11:14:42;;;;;;;6.50;2.20;;;8.50;99.90;;;;;;4397226;23;20435;-73
2023/01/02 11:17:14;;;;;;;5.75;2.00;;;8.60;99.90;;;;;;4958779;28;20839;-76
2023/01/02 11:19:45;;;;;;;5.22;1.50;;;8.70;99.90;;;;;;4956393;28;20441;-73
2023/01/02 11:22:14;;;;;;;7.65;2.60;;;8.60;99.90;;;;;;4941018;28;20487;-73
2023/01/02 11:24:59;;;;;;;7.75;2.10;;;8.70;99.90;;;;;;4962167;28;20435;-74
2023/01/02 11:27:34;;;;;;;5.78;2.00;;;8.70;99.90;;;;;;4960470;28;20470;-74
2023/01/02 11:30:01;;;;;;;7.00;2.50;;;8.90;99.90;;;;;;4960632;28;20992;-74
2023/01/02 11:32:34;;;;;;;9.83;2.57;;;9.00;99.90;;;;;;4960710;28;20467;-74
2023/01/02 11:35:01;;;;;;;6.38;1.83;;;9.00;99.90;;;;;;4961378;28;20991;-72
2023/01/02 11:37:27;;;;;;;7.95;2.22;;;9.00;99.90;;;;;;4951783;28;20489;-74
2023/01/02 11:39:59;;;;;;;9.90;2.37;;;9.10;99.90;;;;;;4960455;28;20473;-73
2023/01/02 11:45:27;;;;;;;9.02;2.25;;;9.10;99.90;;;;;;4948468;28;20754;-74
2023/01/02 11:48:00;;;;;;;13.77;3.63;;;9.10;99.90;;;;;;4954663;28;20837;-75
2023/01/02 11:50:32;;;;;;;9.80;2.05;;;9.10;99.90;;;;;;4963980;28;20439;-75
2023/01/02 11:53:16;;;;;;;9.52;2.22;;;9.00;99.90;;;;;;4961777;28;20437;-74
2023/01/02 11:55:58;;;;;;;9.05;2.38;;;9.00;99.90;;;;;;4959487;28;20438;-74
2023/01/02 11:58:50;;;;;;;8.75;2.20;;;8.90;99.90;;;;;;4952317;28;20787;-74
2023/01/02 12:01:38;;;;;;;7.47;2.30;;;9.10;99.90;;;;;;4951178;28;20518;-74
2023/01/02 12:04:04;;;;;;;9.38;2.35;;;9.10;99.90;;;;;;4960510;28;20432;-74
2023/01/02 12:06:48;;;;;;;8.50;2.75;;;9.00;99.90;;;;;;4955246;28;20416;-72
2023/01/02 12:09:41;;;;;;;10.40;3.60;;;9.00;99.90;;;;;;4965295;28;20432;-73
2023/01/02 12:12:16;;;;;;;7.10;1.60;;;9.10;99.90;;;;;;4964139;28;20420;-72
2023/01/02 12:14:56;;;;;;;9.20;2.05;;;9.30;99.90;;;;;;4962859;28;20435;-73
2023/01/02 12:17:43;;;;;;;10.88;2.88;;;9.40;99.90;;;;;;4946368;28;20444;-75
2023/01/02 12:20:28;;;;;;;9.68;2.20;;;9.50;99.90;;;;;;4962415;28;20404;-75
2023/01/02 12:23:29;;;;;;;10.02;2.70;;;9.30;99.90;;;;;;4947294;28;20852;-74
2023/01/02 12:26:09;;;;;;;7.20;1.80;;;9.30;99.90;;;;;;4961374;28;20787;-74
2023/01/02 12:28:56;;;;;;;9.57;2.47;;;9.50;99.90;;;;;;4945901;29;20425;-73
2023/01/02 12:31:34;;;;;;;7.88;2.28;;;9.40;99.90;;;;;;4947625;29;20461;-76
2023/01/02 12:34:22;;;;;;;6.88;2.00;;;9.40;99.90;;;;;;4955067;28;20779;-74
2023/01/02 12:37:25;;;;;;;7.82;1.90;;;9.20;99.90;;;;;;4968524;28;20440;-75
2023/01/02 12:39:57;;;;;;;9.98;2.78;;;9.40;99.90;;;;;;4965252;28;20427;-75
2023/01/02 12:42:37;;;;;;;10.90;2.00;;;9.20;99.90;;;;;;4966734;28;20569;-75
2023/01/02 12:45:14;;;;;;;9.50;2.47;;;9.20;99.90;;;;;;4965904;28;20421;-75
2023/01/02 12:48:01;;;;;;;12.20;2.88;;;9.10;99.90;;;;;;4966768;28;20478;-76
2023/01/02 12:50:48;;;;;;;9.30;2.33;;;9.30;99.90;;;;;;4962097;28;20438;-76
2023/01/02 12:53:29;;;;;;;10.40;2.40;;;9.20;99.90;;;;;;4953520;28;20913;-75
2023/01/02 12:56:00;;;;;;;11.18;2.40;;;9.30;99.90;;;;;;4962639;28;20455;-76
2023/01/02 12:59:03;;;;;;;13.05;3.03;;;9.20;99.90;;;;;;4959061;28;20426;-75
2023/01/02 13:01:38;;;;;;;8.43;2.00;;;9.20;99.90;;;;;;4945170;29;20422;-76
2023/01/02 13:04:12;;;;;;;11.98;2.35;;;9.20;99.90;;;;;;4944532;28;20424;-75
2023/01/02 13:06:49;;;;;;;9.60;1.98;;;9.10;99.90;;;;;;4962724;28;20491;-75
2023/01/02 13:09:26;;;;;;;15.88;2.90;;;9.20;99.90;;;;;;4950029;28;20433;-75
2023/01/02 13:12:13;;;;;;;17.03;3.47;;;9.30;99.90;;;;;;4961050;28;20421;-75
2023/01/02 13:15:16;;;;;;;13.27;3.10;;;9.10;99.90;;;;;;4946009;28;21555;-75
2023/01/02 13:18:10;;;;;;;8.53;2.23;;;9.20;99.90;;;;;;4939360;28;20849;-75